Time;durP1;ratioP1;P1;durP2;ratioP2;P2;SDS_P1;SDS_P2;PMS_P1;PMS_P2;Temp;Humidity;BMP_temperature;BMP_pressure;BME280_temperature;BME280_humidity;BME280_pressure;Samples;Min_cycle;Max_cycle;Signal;HPM_P1;HPM_P2
2022/04/07 00:01:09;;;;;;;12.18;2.50;;;9.50;99.90;;;;;;5113862;28;20126;-84
2022/04/07 00:03:35;;;;;;;12.68;2.40;;;9.40;99.90;;;;;;5096406;28;20470;-84
2022/04/07 00:06:01;;;;;;;11.48;2.17;;;9.40;99.90;;;;;;5096143;28;20040;-83
2022/04/07 00:08:28;;;;;;;10.90;2.47;;;9.40;99.90;;;;;;5114092;28;20475;-84
2022/04/07 00:10:54;;;;;;;11.38;2.00;;;9.40;99.90;;;;;;5095786;28;20043;-81
2022/04/07 00:13:19;;;;;;;10.18;2.13;;;9.30;99.90;;;;;;5096838;28;20051;-85
2022/04/07 00:15:45;;;;;;;8.77;1.83;;;9.30;99.90;;;;;;5113156;28;20497;-81
2022/04/07 00:18:11;;;;;;;11.05;2.47;;;9.30;99.90;;;;;;5096059;28;20043;-84
2022/04/07 00:20:37;;;;;;;14.85;2.67;;;9.30;99.90;;;;;;5113494;28;20043;-82
2022/04/07 00:23:03;;;;;;;11.05;1.95;;;9.30;99.90;;;;;;5096182;28;20515;-82
2022/04/07 00:25:30;;;;;;;9.32;2.60;;;9.30;99.90;;;;;;5096053;28;20043;-84
2022/04/07 00:27:56;;;;;;;12.23;2.35;;;9.20;99.90;;;;;;5113235;28;20549;-82
2022/04/07 00:30:22;;;;;;;14.80;2.90;;;9.20;99.90;;;;;;5095816;28;20126;-83
2022/04/07 00:32:49;;;;;;;12.60;2.70;;;9.20;99.90;;;;;;5114476;28;20395;-84
2022/04/07 00:35:16;;;;;;;10.68;3.05;;;9.20;99.90;;;;;;5113397;28;20055;-84
2022/04/07 00:37:42;;;;;;;16.05;3.22;;;9.20;99.90;;;;;;5114402;28;20108;-83
2022/04/07 00:40:10;;;;;;;18.13;2.63;;;9.20;99.90;;;;;;5113332;28;20398;-81
2022/04/07 00:42:50;;;;;;;14.05;3.38;;;9.20;99.90;;;;;;5112437;28;20047;-81
2022/04/07 00:45:21;;;;;;;16.08;3.15;;;9.20;99.90;;;;;;5095491;28;20047;-84
2022/04/07 00:47:49;;;;;;;11.88;2.78;;;9.20;99.90;;;;;;5096021;28;20043;-82
2022/04/07 00:50:17;;;;;;;14.65;3.45;;;9.20;99.90;;;;;;5113163;28;20040;-85
2022/04/07 00:52:56;;;;;;;18.00;2.92;;;9.20;99.90;;;;;;5114083;28;20048;-83
2022/04/07 00:55:24;;;;;;;13.95;3.17;;;9.20;99.90;;;;;;5113315;28;20044;-81
2022/04/07 00:57:51;;;;;;;17.05;3.10;;;9.20;99.90;;;;;;5094626;28;20039;-83
2022/04/07 01:00:17;;;;;;;18.25;2.85;;;9.20;99.90;;;;;;5095536;28;20501;-83
2022/04/07 01:02:43;;;;;;;20.42;4.43;;;9.20;99.90;;;;;;5113220;28;20039;-82
2022/04/07 01:05:10;;;;;;;18.17;2.80;;;9.20;99.90;;;;;;5113026;28;20039;-85
2022/04/07 01:07:37;;;;;;;16.05;2.90;;;9.20;99.90;;;;;;5095363;28;20043;-84
2022/04/07 01:10:08;;;;;;;20.92;3.00;;;9.20;99.90;;;;;;5094707;28;20134;-85
2022/04/07 01:12:34;;;;;;;17.52;3.00;;;9.20;99.90;;;;;;5095576;28;20043;-84
2022/04/07 01:15:06;;;;;;;14.35;2.88;;;9.10;99.90;;;;;;5095804;28;20047;-86
2022/04/07 01:17:34;;;;;;;18.23;3.50;;;9.10;99.90;;;;;;5094548;28;20073;-84
2022/04/07 01:20:01;;;;;;;18.50;3.38;;;9.10;99.90;;;;;;5113325;28;20402;-84
2022/04/07 01:22:26;;;;;;;22.15;3.20;;;9.00;99.90;;;;;;5096270;28;20502;-87
2022/04/07 01:24:52;;;;;;;25.63;3.20;;;9.00;99.90;;;;;;5117147;28;20071;-86
2022/04/07 01:27:19;;;;;;;21.17;3.25;;;9.00;99.90;;;;;;5117913;28;20039;-86
2022/04/07 01:29:46;;;;;;;16.73;2.90;;;9.00;99.90;;;;;;5117796;28;20100;-84
2022/04/07 01:32:19;;;;;;;24.45;3.97;;;9.00;99.90;;;;;;5117016;28;20048;-85
2022/04/07 01:34:46;;;;;;;17.83;3.30;;;9.00;99.90;;;;;;5099361;28;20044;-87
2022/04/07 01:37:12;;;;;;;20.35;5.20;;;9.00;99.90;;;;;;5099566;28;20047;-84
2022/04/07 01:39:41;;;;;;;15.77;3.65;;;9.00;99.90;;;;;;5098241;28;20039;-85
2022/04/07 01:42:08;;;;;;;20.52;4.10;;;9.00;99.90;;;;;;5098485;28;20043;-87
2022/04/07 01:44:40;;;;;;;21.70;4.38;;;9.00;99.90;;;;;;5099272;28;20059;-85
2022/04/07 01:47:09;;;;;;;20.20;3.92;;;9.00;99.90;;;;;;5098079;28;20151;-86
2022/04/07 01:49:36;;;;;;;30.80;4.03;;;9.00;99.90;;;;;;5117379;28;20048;-86
2022/04/07 01:52:04;;;;;;;18.15;3.22;;;9.00;99.90;;;;;;5116426;28;20062;-83
2022/04/07 01:54:31;;;;;;;27.27;3.50;;;9.00;99.90;;;;;;5098875;28;20079;-85
2022/04/07 01:56:58;;;;;;;22.30;5.05;;;9.00;99.90;;;;;;5099171;28;20494;-83
2022/04/07 01:59:25;;;;;;;21.40;3.25;;;9.00;99.90;;;;;;5097517;28;20525;-84
2022/04/07 02:01:51;;;;;;;21.65;4.53;;;9.00;99.90;;;;;;5116600;28;20059;-83
2022/04/07 02:04:17;;;;;;;23.58;3.78;;;8.90;99.90;;;;;;5098912;28;20483;-83
2022/04/07 02:06:43;;;;;;;28.27;4.60;;;9.00;99.90;;;;;;5097906;28;20052;-83
2022/04/07 02:09:09;;;;;;;25.27;4.57;;;9.00;99.90;;;;;;5098894;28;20047;-84
2022/04/07 02:11:35;;;;;;;18.95;3.45;;;9.00;99.90;;;;;;5116644;28;20054;-84
2022/04/07 02:14:01;;;;;;;20.52;3.88;;;9.00;99.90;;;;;;5097994;28;20486;-85
2022/04/07 02:16:30;;;;;;;23.77;4.10;;;9.00;99.90;;;;;;5116417;28;20052;-82
2022/04/07 02:18:57;;;;;;;27.40;4.35;;;9.00;99.90;;;;;;5117188;28;20086;-85
2022/04/07 02:21:22;;;;;;;27.77;3.97;;;9.10;99.90;;;;;;5097583;28;20051;-84
2022/04/07 02:23:48;;;;;;;26.75;4.63;;;9.10;99.90;;;;;;5098701;28;20032;-84
2022/04/07 02:26:16;;;;;;;18.42;3.65;;;9.10;99.90;;;;;;5116834;28;20089;-84
2022/04/07 02:28:43;;;;;;;18.17;3.08;;;9.10;99.90;;;;;;5099339;28;20036;-83
2022/04/07 02:31:09;;;;;;;27.52;4.35;;;9.10;99.90;;;;;;5116294;28;20051;-83
2022/04/07 02:33:35;;;;;;;34.00;5.25;;;9.10;99.90;;;;;;5097994;28;20048;-84
2022/04/07 02:36:02;;;;;;;26.10;4.40;;;9.10;99.90;;;;;;5114738;28;20119;-84
2022/04/07 02:38:28;;;;;;;29.35;4.95;;;9.10;99.90;;;;;;5098108;28;20141;-84
2022/04/07 02:40:54;;;;;;;20.17;3.40;;;9.10;99.90;;;;;;5116611;28;20092;-84
2022/04/07 02:43:19;;;;;;;24.48;4.78;;;9.10;99.90;;;;;;5115422;28;20044;-84
2022/04/07 02:45:45;;;;;;;21.88;4.10;;;9.10;99.90;;;;;;5116295;28;20043;-85
2022/04/07 02:48:11;;;;;;;21.30;3.40;;;9.10;99.90;;;;;;5097185;28;20097;-84
2022/04/07 02:50:37;;;;;;;20.70;3.72;;;9.10;99.90;;;;;;5116288;28;20047;-82
2022/04/07 02:53:02;;;;;;;25.35;3.95;;;9.10;99.90;;;;;;5115936;28;20050;-84
2022/04/07 02:55:28;;;;;;;22.35;3.40;;;9.10;99.90;;;;;;5096548;28;20143;-82
2022/04/07 02:57:58;;;;;;;18.80;4.55;;;9.10;99.90;;;;;;5116061;28;20047;-83
2022/04/07 03:00:24;;;;;;;24.77;4.38;;;9.10;99.90;;;;;;5098000;28;20126;-82
2022/04/07 03:02:50;;;;;;;26.52;3.72;;;9.10;99.90;;;;;;5115039;28;20180;-83
2022/04/07 03:05:16;;;;;;;23.08;3.60;;;9.10;99.90;;;;;;5097650;28;20053;-83
2022/04/07 03:07:42;;;;;;;13.65;3.28;;;9.10;99.90;;;;;;5115689;28;20046;-82
2022/04/07 03:10:08;;;;;;;37.17;5.22;;;9.10;99.90;;;;;;5096955;28;20044;-85
2022/04/07 03:12:34;;;;;;;23.10;4.35;;;9.10;99.90;;;;;;5096798;28;20035;-82
2022/04/07 03:15:00;;;;;;;20.77;3.70;;;9.10;99.90;;;;;;5115443;28;20040;-84
2022/04/07 03:17:26;;;;;;;16.85;3.80;;;9.10;99.90;;;;;;5095914;28;20044;-84
2022/04/07 03:19:52;;;;;;;22.05;4.32;;;9.10;99.90;;;;;;5115161;28;20046;-84
2022/04/07 03:22:19;;;;;;;21.30;4.22;;;9.10;99.90;;;;;;5097641;28;20372;-84
2022/04/07 03:24:45;;;;;;;22.95;5.45;;;9.10;99.90;;;;;;5114791;28;20044;-84
2022/04/07 03:27:12;;;;;;;20.60;4.35;;;9.10;99.90;;;;;;5096995;28;20093;-84
2022/04/07 03:29:38;;;;;;;23.30;3.85;;;9.10;99.90;;;;;;5115716;28;20046;-85
2022/04/07 03:32:04;;;;;;;20.67;3.85;;;9.10;99.90;;;;;;5078840;28;20047;-83
2022/04/07 03:34:31;;;;;;;24.10;4.85;;;9.10;99.90;;;;;;5114599;28;20039;-83
2022/04/07 03:36:57;;;;;;;22.83;4.55;;;9.10;99.90;;;;;;5115625;28;20126;-84
2022/04/07 03:39:23;;;;;;;17.48;3.55;;;9.10;99.90;;;;;;5114278;28;20244;-84
2022/04/07 03:41:49;;;;;;;16.70;4.65;;;9.10;99.90;;;;;;5096442;28;20046;-83
2022/04/07 03:44:14;;;;;;;18.33;3.90;;;9.10;99.90;;;;;;5115101;28;20115;-82
2022/04/07 03:46:40;;;;;;;22.15;4.65;;;9.20;99.90;;;;;;5095363;28;20947;-82
2022/04/07 03:49:06;;;;;;;20.13;3.88;;;9.20;99.90;;;;;;5114225;28;20122;-83
2022/04/07 03:51:32;;;;;;;25.42;4.45;;;9.20;99.90;;;;;;5114150;28;20573;-83
2022/04/07 03:53:58;;;;;;;17.83;3.55;;;9.20;99.90;;;;;;5115054;28;20107;-83
2022/04/07 03:56:24;;;;;;;24.45;4.03;;;9.20;99.90;;;;;;5114577;28;20486;-83
2022/04/07 03:58:50;;;;;;;28.92;5.20;;;9.20;99.90;;;;;;5113808;28;20043;-84
2022/04/07 04:01:15;;;;;;;23.73;4.30;;;9.20;99.90;;;;;;5114508;28;20035;-84
2022/04/07 04:03:41;;;;;;;26.83;4.35;;;9.20;99.90;;;;;;5114682;28;20046;-83
2022/04/07 04:06:07;;;;;;;27.60;4.88;;;9.20;99.90;;;;;;5095612;28;20049;-84
2022/04/07 04:08:32;;;;;;;29.88;5.03;;;9.20;99.90;;;;;;5114657;28;20075;-86
2022/04/07 04:10:58;;;;;;;27.13;5.65;;;9.10;99.90;;;;;;5096565;28;20059;-85
2022/04/07 04:13:26;;;;;;;30.85;4.55;;;9.10;99.90;;;;;;5095284;28;20035;-84
2022/04/07 04:15:51;;;;;;;24.50;4.60;;;9.10;99.90;;;;;;5114020;28;20048;-85
2022/04/07 04:18:17;;;;;;;29.02;5.70;;;9.10;99.90;;;;;;5114331;28;20046;-86
2022/04/07 04:20:43;;;;;;;38.42;5.38;;;9.00;99.90;;;;;;5095196;28;20048;-82
2022/04/07 04:23:09;;;;;;;33.78;6.15;;;9.00;99.90;;;;;;5114625;28;20131;-83
2022/04/07 04:25:35;;;;;;;33.70;5.18;;;9.00;99.90;;;;;;5096225;28;20055;-87
2022/04/07 04:28:01;;;;;;;36.22;6.00;;;9.00;99.90;;;;;;5095034;28;20039;-88
2022/04/07 04:30:26;;;;;;;33.33;5.80;;;9.00;99.90;;;;;;5114169;28;20101;-85
2022/04/07 04:32:52;;;;;;;41.35;6.78;;;8.90;99.90;;;;;;5096281;28;20039;-85
2022/04/07 04:35:18;;;;;;;31.88;6.05;;;8.90;99.90;;;;;;5094923;28;20039;-86
2022/04/07 04:37:44;;;;;;;40.47;6.13;;;8.90;99.90;;;;;;5114258;28;20043;-86
2022/04/07 04:40:10;;;;;;;40.95;8.63;;;8.90;99.90;;;;;;5113887;28;20141;-87
2022/04/07 04:42:36;;;;;;;28.70;5.05;;;8.90;99.90;;;;;;5077988;28;20207;-87
2022/04/07 04:45:02;;;;;;;40.35;6.28;;;8.90;99.90;;;;;;5095827;28;20075;-85
2022/04/07 04:47:28;;;;;;;29.20;5.13;;;8.90;99.90;;;;;;5095465;28;20035;-87
2022/04/07 04:49:54;;;;;;;31.25;5.47;;;8.90;99.90;;;;;;5113141;28;20134;-83
2022/04/07 04:52:20;;;;;;;33.42;6.03;;;8.90;99.90;;;;;;5088642;28;20135;-87
2022/04/07 04:54:45;;;;;;;40.47;6.65;;;8.80;99.90;;;;;;5100765;28;20114;-90
2022/04/07 04:57:11;;;;;;;29.15;5.85;;;8.80;99.90;;;;;;5090667;28;20189;-89
2022/04/07 04:59:37;;;;;;;29.40;5.75;;;8.80;99.90;;;;;;5096277;28;20036;-88
2022/04/07 05:02:04;;;;;;;27.88;4.93;;;8.80;99.90;;;;;;5094802;28;20117;-87
2022/04/07 05:04:31;;;;;;;34.72;4.93;;;8.80;99.90;;;;;;5092321;28;20403;-85
2022/04/07 05:06:57;;;;;;;20.27;3.55;;;8.80;99.90;;;;;;5092320;28;20495;-82
2022/04/07 05:09:23;;;;;;;22.33;3.40;;;8.70;99.90;;;;;;5092864;28;20048;-82
2022/04/07 05:11:49;;;;;;;16.63;2.92;;;8.60;99.90;;;;;;5092191;28;20105;-81
2022/04/07 05:14:15;;;;;;;9.05;1.73;;;8.50;99.90;;;;;;5092514;28;20044;-83
2022/04/07 05:16:40;;;;;;;11.00;2.35;;;8.40;99.90;;;;;;5095018;28;20138;-83
2022/04/07 05:19:06;;;;;;;4.43;1.30;;;8.10;99.90;;;;;;5095917;28;20544;-81
2022/04/07 05:21:32;;;;;;;7.90;2.15;;;7.80;99.90;;;;;;5113994;28;20044;-81
2022/04/07 05:23:58;;;;;;;4.30;1.30;;;7.50;99.90;;;;;;5108213;28;20059;-86
2022/04/07 05:26:23;;;;;;;6.90;1.52;;;7.30;99.90;;;;;;5112133;28;20064;-83
2022/04/07 05:28:49;;;;;;;13.15;1.58;;;7.10;99.90;;;;;;5102163;28;20544;-81
2022/04/07 05:31:15;;;;;;;13.50;2.50;;;7.00;99.90;;;;;;5092481;28;20044;-81
2022/04/07 05:33:41;;;;;;;9.50;2.13;;;6.90;99.90;;;;;;5088626;28;20047;-82
2022/04/07 05:36:06;;;;;;;8.23;1.25;;;6.80;99.90;;;;;;5095559;28;20087;-85
2022/04/07 05:38:32;;;;;;;16.75;2.40;;;6.70;99.90;;;;;;5100028;28;20039;-83
2022/04/07 05:40:58;;;;;;;6.75;1.23;;;6.70;99.90;;;;;;5094568;28;20487;-83
2022/04/07 05:43:24;;;;;;;5.28;1.50;;;6.60;99.90;;;;;;5093418;28;20036;-78
2022/04/07 05:45:50;;;;;;;6.07;1.10;;;6.60;99.90;;;;;;5083446;28;20196;-84
2022/04/07 05:48:17;;;;;;;12.45;1.88;;;6.50;99.90;;;;;;5095561;28;20047;-82
2022/04/07 05:50:43;;;;;;;9.60;1.52;;;6.40;99.90;;;;;;5083818;28;20045;-81
2022/04/07 05:53:10;;;;;;;11.45;1.58;;;6.40;99.90;;;;;;5088316;28;20059;-83
2022/04/07 05:55:37;;;;;;;1.60;0.68;;;6.30;99.90;;;;;;5099784;28;20047;-81
2022/04/07 05:58:04;;;;;;;7.47;1.60;;;6.20;99.90;;;;;;5112973;28;20047;-82
2022/04/07 06:00:30;;;;;;;10.63;1.55;;;6.20;99.90;;;;;;5112737;28;20039;-81
2022/04/07 06:02:56;;;;;;;5.50;1.38;;;6.10;99.90;;;;;;5094951;28;20040;-80
2022/04/07 06:05:22;;;;;;;6.30;1.10;;;6.10;99.90;;;;;;5100931;28;20036;-82
2022/04/07 06:07:47;;;;;;;10.45;2.55;;;6.00;99.90;;;;;;5100987;28;20532;-83
2022/04/07 06:10:14;;;;;;;8.63;1.13;;;6.00;99.90;;;;;;5097903;28;20062;-83
2022/04/07 06:12:42;;;;;;;6.10;1.40;;;6.00;99.90;;;;;;5114833;28;20035;-83
2022/04/07 06:15:11;;;;;;;9.52;1.50;;;5.90;99.90;;;;;;5097338;28;20114;-83
2022/04/07 06:17:42;;;;;;;7.45;1.52;;;5.90;99.90;;;;;;5097609;28;20043;-84
2022/04/07 06:20:11;;;;;;;5.93;1.17;;;5.90;99.90;;;;;;5115239;28;20040;-85
2022/04/07 06:22:38;;;;;;;5.15;1.10;;;5.90;99.90;;;;;;5107321;28;20456;-84
2022/04/07 06:25:05;;;;;;;7.88;1.38;;;5.90;99.90;;;;;;5097446;28;20494;-84
2022/04/07 06:27:45;;;;;;;6.32;1.20;;;5.90;99.90;;;;;;5115333;28;20036;-84
2022/04/07 06:30:13;;;;;;;7.15;1.40;;;5.90;99.90;;;;;;5116007;28;20562;-84
2022/04/07 06:32:39;;;;;;;6.40;0.98;;;5.90;99.90;;;;;;5114921;28;20459;-86
2022/04/07 06:35:07;;;;;;;4.82;0.93;;;5.90;99.90;;;;;;5077192;28;20048;-84
2022/04/07 06:37:46;;;;;;;5.13;1.25;;;6.00;99.90;;;;;;5094454;28;20116;-84
2022/04/07 06:40:12;;;;;;;6.40;1.42;;;6.00;99.90;;;;;;5112341;28;20048;-85
2022/04/07 06:42:38;;;;;;;3.30;0.80;;;6.00;99.90;;;;;;5097967;28;20092;-85
2022/04/07 06:45:05;;;;;;;3.15;0.93;;;6.10;99.90;;;;;;5115726;28;20499;-84
2022/04/07 06:47:39;;;;;;;5.00;1.27;;;6.10;99.90;;;;;;5115342;28;20044;-83
2022/04/07 06:50:10;;;;;;;4.32;0.93;;;6.10;99.90;;;;;;5106048;28;20040;-86
2022/04/07 06:52:36;;;;;;;5.25;2.35;;;6.20;99.90;;;;;;5094516;28;20063;-84
2022/04/07 06:55:03;;;;;;;5.00;1.83;;;6.20;99.90;;;;;;5107904;28;20047;-85
2022/04/07 06:57:29;;;;;;;7.47;2.03;;;6.20;99.90;;;;;;5090180;28;20115;-85
2022/04/07 06:59:55;;;;;;;4.60;0.93;;;6.20;99.90;;;;;;5096817;28;20127;-85
2022/04/07 07:02:22;;;;;;;7.55;1.42;;;6.20;99.90;;;;;;5114649;28;20494;-84
2022/04/07 07:04:47;;;;;;;3.85;0.93;;;6.20;99.90;;;;;;5115779;28;20062;-83
2022/04/07 07:07:13;;;;;;;9.63;1.02;;;6.20;99.90;;;;;;5106106;28;20498;-83
2022/04/07 07:09:39;;;;;;;5.13;1.50;;;6.20;99.90;;;;;;5115181;28;20043;-83
2022/04/07 07:12:05;;;;;;;6.22;1.17;;;6.20;99.90;;;;;;5115117;28;20051;-84
2022/04/07 07:14:31;;;;;;;6.90;1.30;;;6.20;99.90;;;;;;5097402;28;20044;-84
2022/04/07 07:16:57;;;;;;;3.72;1.20;;;6.30;99.90;;;;;;5115156;28;20050;-83
2022/04/07 07:19:26;;;;;;;5.93;0.82;;;6.30;99.90;;;;;;5096923;28;20046;-85
2022/04/07 07:21:56;;;;;;;5.22;0.80;;;6.30;99.90;;;;;;5096694;28;20120;-87
2022/04/07 07:24:22;;;;;;;4.35;0.90;;;6.30;99.90;;;;;;5114584;28;20055;-86
2022/04/07 07:26:47;;;;;;;2.88;1.13;;;6.40;99.90;;;;;;5115467;28;20035;-86
2022/04/07 07:29:13;;;;;;;5.72;1.08;;;6.40;99.90;;;;;;5096661;28;20039;-88
2022/04/07 07:31:39;;;;;;;6.47;1.23;;;6.40;99.90;;;;;;5096173;28;20043;-84
2022/04/07 07:34:05;;;;;;;4.32;0.90;;;6.40;99.90;;;;;;5097091;28;20415;-85
2022/04/07 07:36:31;;;;;;;5.25;1.42;;;6.40;99.90;;;;;;5096215;28;20547;-86
2022/04/07 07:38:57;;;;;;;6.05;1.10;;;6.40;99.90;;;;;;5095000;28;20043;-86
2022/04/07 07:41:23;;;;;;;5.18;1.13;;;6.40;99.90;;;;;;5111291;28;20040;-84
2022/04/07 07:43:50;;;;;;;8.15;1.60;;;6.50;99.90;;;;;;5113954;28;20058;-87
2022/04/07 07:46:16;;;;;;;3.85;0.90;;;6.50;99.90;;;;;;5114810;28;20047;-85
2022/04/07 07:48:43;;;;;;;3.25;1.67;;;6.50;99.90;;;;;;5107883;28;20387;-87
2022/04/07 07:51:09;;;;;;;5.03;1.20;;;6.50;99.90;;;;;;5114057;28;20553;-86
2022/04/07 07:53:35;;;;;;;5.95;1.02;;;6.50;99.90;;;;;;5114255;28;20050;-84
2022/04/07 07:56:01;;;;;;;4.32;1.10;;;6.50;99.90;;;;;;5079553;28;20051;-87
2022/04/07 07:58:27;;;;;;;3.83;1.33;;;6.60;99.90;;;;;;5114134;28;20047;-85
2022/04/07 08:00:54;;;;;;;4.45;1.00;;;6.70;99.90;;;;;;5096867;28;20047;-84
2022/04/07 08:03:19;;;;;;;7.00;1.23;;;6.80;99.90;;;;;;5096290;28;20052;-87
2022/04/07 08:05:46;;;;;;;5.93;1.58;;;6.80;99.90;;;;;;5113936;28;20044;-85
2022/04/07 08:08:12;;;;;;;4.40;0.93;;;6.90;99.90;;;;;;5096192;28;20428;-83
2022/04/07 08:10:38;;;;;;;8.07;1.45;;;6.90;99.90;;;;;;5114518;28;20090;-86
2022/04/07 08:13:04;;;;;;;9.07;1.30;;;7.00;99.90;;;;;;5113258;28;20048;-86
2022/04/07 08:15:31;;;;;;;5.88;1.08;;;7.10;99.90;;;;;;5096254;28;20375;-86
2022/04/07 08:17:59;;;;;;;6.15;1.15;;;7.10;99.90;;;;;;5114538;28;20486;-84
2022/04/07 08:20:25;;;;;;;10.00;1.38;;;7.20;99.90;;;;;;5095974;28;20058;-83
2022/04/07 08:22:51;;;;;;;7.25;1.35;;;7.30;99.90;;;;;;5078829;28;20039;-85
2022/04/07 08:25:17;;;;;;;8.85;1.33;;;7.40;99.90;;;;;;5114193;28;20047;-87
2022/04/07 08:27:45;;;;;;;5.32;1.02;;;7.50;99.90;;;;;;5094603;28;20652;-84
2022/04/07 08:30:15;;;;;;;6.57;1.25;;;7.70;99.90;;;;;;5094771;28;20487;-87
2022/04/07 08:32:51;;;;;;;;;;;;;;;;;;;;;
2022/04/07 08:35:17;;;;;;;6.88;2.00;;;7.90;99.90;;;;;;5113964;28;20093;-84
2022/04/07 08:37:46;;;;;;;10.32;1.55;;;8.10;99.90;;;;;;5114348;28;20055;-86
2022/04/07 08:40:18;;;;;;;4.63;0.93;;;8.20;99.90;;;;;;5113245;28;20039;-87
2022/04/07 08:42:44;;;;;;;5.78;1.00;;;8.30;99.90;;;;;;5062052;28;20059;-83
2022/04/07 08:45:17;;;;;;;7.32;1.30;;;8.40;99.90;;;;;;5113887;28;20482;-87
2022/04/07 08:47:50;;;;;;;5.13;1.17;;;8.50;99.90;;;;;;5094835;28;20498;-86
2022/04/07 08:50:21;;;;;;;5.60;1.05;;;8.50;99.90;;;;;;5095467;28;20494;-83
2022/04/07 08:52:50;;;;;;;9.77;1.38;;;8.60;99.90;;;;;;5113733;28;20131;-84
2022/04/07 08:55:16;;;;;;;9.07;1.40;;;8.80;99.90;;;;;;5112722;28;20039;-84
2022/04/07 08:57:45;;;;;;;5.47;1.30;;;8.90;99.90;;;;;;5094676;28;20108;-85
2022/04/07 09:00:12;;;;;;;4.20;1.17;;;9.00;99.90;;;;;;5113526;28;20367;-83
2022/04/07 09:02:38;;;;;;;8.68;1.40;;;9.10;99.90;;;;;;5112237;28;20046;-85
2022/04/07 09:05:10;;;;;;;8.52;1.27;;;9.20;99.90;;;;;;5112838;28;20036;-83
2022/04/07 09:07:39;;;;;;;5.57;1.30;;;9.30;99.90;;;;;;5095513;28;20051;-84
2022/04/07 09:10:06;;;;;;;7.07;1.60;;;9.40;99.90;;;;;;5077532;28;20075;-82
2022/04/07 09:12:34;;;;;;;12.35;2.13;;;9.60;99.90;;;;;;5094565;28;20394;-86
2022/04/07 09:15:00;;;;;;;14.73;2.72;;;9.70;99.90;;;;;;5112678;28;20050;-82
2022/04/07 09:17:26;;;;;;;8.38;2.08;;;9.70;99.90;;;;;;5113248;28;20046;-83
2022/04/07 09:19:53;;;;;;;12.98;1.55;;;9.70;99.90;;;;;;5095200;28;20050;-85
2022/04/07 09:22:29;;;;;;;8.57;1.42;;;9.80;99.90;;;;;;5094011;28;20051;-81
2022/04/07 09:24:55;;;;;;;11.32;2.28;;;9.80;99.90;;;;;;5113585;28;20044;-83
2022/04/07 09:27:21;;;;;;;10.93;1.73;;;9.90;99.90;;;;;;5112962;28;20500;-84
2022/04/07 09:29:47;;;;;;;6.57;1.75;;;9.80;99.90;;;;;;5112765;28;20089;-81
2022/04/07 09:32:24;;;;;;;9.23;2.10;;;9.70;99.90;;;;;;5094709;28;20123;-80
2022/04/07 09:34:58;;;;;;;8.38;1.65;;;9.70;99.90;;;;;;5094794;28;20043;-82
2022/04/07 09:37:29;;;;;;;11.23;2.00;;;9.60;99.90;;;;;;5094571;28;20517;-83
2022/04/07 09:40:12;;;;;;;9.98;1.77;;;9.60;99.90;;;;;;5095024;28;20390;-81
2022/04/07 09:42:41;;;;;;;7.45;2.17;;;9.50;99.90;;;;;;5095030;28;20047;-83
2022/04/07 09:45:11;;;;;;;13.98;2.38;;;9.60;99.90;;;;;;5097350;28;20040;-83
2022/04/07 09:47:46;;;;;;;17.25;3.55;;;9.60;99.90;;;;;;5116575;28;20071;-83
2022/04/07 09:50:20;;;;;;;;;;;9.50;99.90;;;;;;5098286;28;20091;-81
2022/04/07 09:53:05;;;;;;;12.95;2.53;;;9.30;99.90;;;;;;5116769;28;19947;-84
2022/04/07 09:55:36;;;;;;;18.27;3.40;;;9.00;99.90;;;;;;5116743;28;20119;-82
2022/04/07 09:58:04;;;;;;;10.15;2.63;;;8.90;99.90;;;;;;5116412;28;20048;-83
2022/04/07 10:00:31;;;;;;;13.75;2.15;;;9.00;99.90;;;;;;5116671;28;20478;-81
2022/04/07 10:02:58;;;;;;;15.18;2.03;;;9.10;99.90;;;;;;5116804;28;20048;-82
2022/04/07 10:05:24;;;;;;;7.55;1.73;;;9.10;99.90;;;;;;5116242;28;20260;-82
2022/04/07 10:07:50;;;;;;;15.07;2.40;;;9.10;99.90;;;;;;5117048;28;20048;-81
2022/04/07 10:10:18;;;;;;;10.65;3.05;;;9.00;99.90;;;;;;5098551;28;20036;-79
2022/04/07 10:12:47;;;;;;;12.85;3.45;;;8.80;99.90;;;;;;5116039;28;20070;-78
2022/04/07 10:15:14;;;;;;;15.32;3.90;;;8.70;99.90;;;;;;5098317;28;20500;-83
2022/04/07 10:17:41;;;;;;;11.93;1.90;;;8.70;99.90;;;;;;5116175;28;20035;-85
2022/04/07 10:20:09;;;;;;;20.20;2.30;;;8.80;99.90;;;;;;5097559;28;20479;-84
2022/04/07 10:22:38;;;;;;;8.98;2.08;;;8.90;99.90;;;;;;5098374;28;20089;-87
2022/04/07 10:25:05;;;;;;;9.30;2.95;;;8.90;99.90;;;;;;5098171;28;20050;-83
2022/04/07 10:27:35;;;;;;;13.43;2.42;;;9.00;99.90;;;;;;5115709;28;20043;-84
2022/04/07 10:30:08;;;;;;;14.23;2.78;;;9.00;99.90;;;;;;5081453;28;20079;-84
2022/04/07 10:32:38;;;;;;;11.68;3.00;;;9.00;99.90;;;;;;5115523;28;20059;-78
2022/04/07 10:35:05;;;;;;;13.63;2.33;;;9.10;99.90;;;;;;5098264;28;20044;-82
2022/04/07 10:37:47;;;;;;;12.38;2.20;;;9.20;99.90;;;;;;5097494;28;20036;-84
2022/04/07 10:40:44;;;;;;;13.20;2.42;;;9.30;99.90;;;;;;5115809;28;20414;-83
2022/04/07 10:43:14;;;;;;;13.57;2.95;;;9.10;99.90;;;;;;5096030;28;20070;-83
2022/04/07 10:45:42;;;;;;;13.65;2.78;;;9.00;99.90;;;;;;5097491;28;20042;-83
2022/04/07 10:48:25;;;;;;;11.02;1.90;;;8.80;99.90;;;;;;5097186;28;20048;-84
2022/04/07 10:51:03;;;;;;;13.77;2.67;;;8.90;99.90;;;;;;5116315;28;20418;-82
2022/04/07 10:53:34;;;;;;;12.88;2.05;;;8.90;99.90;;;;;;5115049;28;20073;-83
2022/04/07 10:56:02;;;;;;;12.27;2.47;;;8.80;99.90;;;;;;5096285;28;20086;-83
2022/04/07 10:58:47;;;;;;;9.98;1.95;;;8.80;99.90;;;;;;5115994;28;20118;-83
2022/04/07 11:01:14;;;;;;;;;;;8.80;99.90;;;;;;5097397;28;20058;-86
2022/04/07 11:03:41;;;;;;;15.35;3.38;;;8.70;99.90;;;;;;5097362;28;19920;-83
2022/04/07 11:06:08;;;;;;;14.98;3.38;;;8.80;99.90;;;;;;5115499;28;20059;-85
2022/04/07 11:08:34;;;;;;;14.65;2.33;;;8.90;99.90;;;;;;5096966;28;20043;-82
2022/04/07 11:11:00;;;;;;;14.68;2.55;;;8.90;99.90;;;;;;5115270;28;20134;-84
2022/04/07 11:13:43;;;;;;;13.23;2.78;;;9.00;99.90;;;;;;5115909;28;20032;-83
2022/04/07 11:16:35;;;;;;;10.93;2.72;;;9.20;99.90;;;;;;5096136;28;20043;-83
2022/04/07 11:19:37;;;;;;;16.90;3.20;;;9.30;99.90;;;;;;5115743;28;20394;-85
2022/04/07 11:22:09;;;;;;;15.32;2.78;;;9.40;99.90;;;;;;5096257;28;20036;-85
2022/04/07 11:24:42;;;;;;;15.38;2.22;;;9.50;99.90;;;;;;5114895;28;20056;-83
2022/04/07 11:27:37;;;;;;;14.30;2.75;;;9.50;99.90;;;;;;5115452;28;20090;-83
2022/04/07 11:30:07;;;;;;;17.70;3.58;;;9.50;99.90;;;;;;5095374;28;20047;-88
2022/04/07 11:32:33;;;;;;;20.35;3.03;;;9.50;99.90;;;;;;5114918;28;20054;-83
2022/04/07 11:35:15;;;;;;;17.50;2.90;;;9.50;99.90;;;;;;5115876;28;20044;-86
2022/04/07 11:37:44;;;;;;;13.45;2.95;;;9.60;99.90;;;;;;5114605;28;20031;-89
2022/04/07 11:40:11;;;;;;;16.70;2.72;;;9.70;99.90;;;;;;5096915;28;20052;-86
2022/04/07 11:42:37;;;;;;;17.02;2.95;;;9.70;99.90;;;;;;5097062;28;20401;-88
2022/04/07 11:45:04;;;;;;;10.50;2.35;;;9.70;99.90;;;;;;5095946;28;20062;-84
2022/04/07 11:47:37;;;;;;;13.60;2.97;;;9.70;99.90;;;;;;5079617;28;20043;-85
2022/04/07 11:50:07;;;;;;;16.55;2.92;;;9.80;99.90;;;;;;5114462;28;20493;-85
2022/04/07 11:52:35;;;;;;;16.27;2.67;;;9.90;99.90;;;;;;5114446;28;20044;-84
2022/04/07 11:55:03;;;;;;;12.52;3.05;;;10.00;99.90;;;;;;5115090;28;20051;-83
2022/04/07 11:57:31;;;;;;;8.38;2.33;;;10.10;99.90;;;;;;5095762;28;20044;-84
2022/04/07 11:59:59;;;;;;;19.10;2.85;;;10.20;99.90;;;;;;5079681;28;20402;-84
2022/04/07 12:02:25;;;;;;;15.23;2.75;;;10.20;99.90;;;;;;5096518;28;20390;-83
2022/04/07 12:04:58;;;;;;;14.93;2.72;;;10.30;99.90;;;;;;5113666;28;20050;-85
2022/04/07 12:07:24;;;;;;;19.08;3.38;;;10.40;99.90;;;;;;5114447;28;20040;-88
2022/04/07 12:09:50;;;;;;;11.48;2.30;;;10.40;99.90;;;;;;5114489;28;20043;-85
2022/04/07 12:12:19;;;;;;;12.48;2.85;;;10.40;99.90;;;;;;5078796;28;20394;-83
2022/04/07 12:14:46;;;;;;;7.43;1.88;;;10.30;99.90;;;;;;5114405;28;20052;-85
2022/04/07 12:17:11;;;;;;;10.18;1.98;;;10.20;99.90;;;;;;5096074;28;20043;-84
2022/04/07 12:19:47;;;;;;;9.07;2.58;;;10.00;99.90;;;;;;5113248;28;20054;-88
2022/04/07 12:22:14;;;;;;;11.82;2.03;;;10.00;99.90;;;;;;5079595;28;20050;-86
2022/04/07 12:24:58;;;;;;;12.80;2.45;;;9.80;99.90;;;;;;5114011;28;20044;-83
2022/04/07 12:27:27;;;;;;;11.52;2.03;;;9.70;99.90;;;;;;5113952;28;20074;-85
2022/04/07 12:29:53;;;;;;;8.27;2.22;;;9.50;99.90;;;;;;5113735;28;20043;-85
2022/04/07 12:32:18;;;;;;;7.20;1.50;;;9.50;99.90;;;;;;5109747;28;20134;-85
2022/04/07 12:34:50;;;;;;;8.80;2.13;;;9.50;99.90;;;;;;5104883;28;20097;-87
2022/04/07 12:37:39;;;;;;;4.57;1.17;;;9.40;99.90;;;;;;5096044;28;20047;-88
2022/04/07 12:40:27;;;;;;;8.13;1.48;;;9.30;99.90;;;;;;5094468;28;20032;-86
2022/04/07 12:42:55;;;;;;;7.88;1.30;;;9.00;99.90;;;;;;5095855;28;20054;-83
2022/04/07 12:45:21;;;;;;;8.88;1.48;;;8.50;99.90;;;;;;5113638;28;20097;-85
2022/04/07 12:48:05;;;;;;;6.63;1.73;;;8.00;99.90;;;;;;5113104;28;20039;-85
2022/04/07 12:50:33;;;;;;;4.88;0.98;;;7.50;99.90;;;;;;5113232;28;20040;-85
2022/04/07 12:52:59;;;;;;;2.75;1.40;;;7.10;99.90;;;;;;5094054;28;20123;-88
2022/04/07 12:55:37;;;;;;;5.15;1.10;;;7.10;99.90;;;;;;5095926;28;20065;-84
2022/04/07 12:58:03;;;;;;;3.05;0.68;;;7.50;99.90;;;;;;5078328;28;20119;-85